sensor_id;sensor_type;location;lat;lon;timestamp;pressure;altitude;pressure_sealevel;temperature;humidity
65756;BME280;69208;47.502;18.940;2023-07-13T00:00:56;97946.72;;;22.78;82.31
65756;BME280;69208;47.502;18.940;2023-07-13T00:01:59;97960.84;;;22.78;80.53
65756;BME280;69208;47.502;18.940;2023-07-13T00:03:03;97952.38;;;22.62;80.56
65756;BME280;69208;47.502;18.940;2023-07-13T00:04:07;97955.47;;;22.71;81.25
65756;BME280;69208;47.502;18.940;2023-07-13T00:05:10;97951.97;;;22.56;80.77
65756;BME280;69208;47.502;18.940;2023-07-13T00:06:13;97951.97;;;22.49;79.96
65756;BME280;69208;47.502;18.940;2023-07-13T00:07:16;97945.06;;;22.37;80.89
65756;BME280;69208;47.502;18.940;2023-07-13T00:08:22;97949.22;;;22.35;80.94
65756;BME280;69208;47.502;18.940;2023-07-13T00:09:25;97938.97;;;22.37;80.28
65756;BME280;69208;47.502;18.940;2023-07-13T00:10:29;97935.87;;;22.35;80.33
65756;BME280;69208;47.502;18.940;2023-07-13T00:11:34;97927.13;;;22.34;79.16
65756;BME280;69208;47.502;18.940;2023-07-13T00:12:38;97921.03;;;22.41;78.89
65756;BME280;69208;47.502;18.940;2023-07-13T00:13:45;97920.25;;;22.33;78.61
65756;BME280;69208;47.502;18.940;2023-07-13T00:14:48;97914.88;;;22.26;77.78
65756;BME280;69208;47.502;18.940;2023-07-13T00:15:51;97913.37;;;22.25;77.85
65756;BME280;69208;47.502;18.940;2023-07-13T00:16:56;97906.47;;;22.24;78.78
65756;BME280;69208;47.502;18.940;2023-07-13T00:17:59;97906.09;;;22.18;78.65
65756;BME280;69208;47.502;18.940;2023-07-13T00:19:04;97899.97;;;22.18;79.36
65756;BME280;69208;47.502;18.940;2023-07-13T00:20:08;97901.12;;;22.20;76.53
65756;BME280;69208;47.502;18.940;2023-07-13T00:21:12;97889.66;;;22.16;77.39
65756;BME280;69208;47.502;18.940;2023-07-13T00:22:15;97883.97;;;22.18;75.87
65756;BME280;69208;47.502;18.940;2023-07-13T00:23:18;97890.09;;;22.18;74.86
65756;BME280;69208;47.502;18.940;2023-07-13T00:24:21;97873.28;;;22.18;74.31
65756;BME280;69208;47.502;18.940;2023-07-13T00:25:26;97866.09;;;22.18;74.20
65756;BME280;69208;47.502;18.940;2023-07-13T00:26:31;97871.41;;;22.22;73.37
65756;BME280;69208;47.502;18.940;2023-07-13T00:27:35;97864.91;;;22.16;73.58
65756;BME280;69208;47.502;18.940;2023-07-13T00:28:38;97858.75;;;22.04;73.58
65756;BME280;69208;47.502;18.940;2023-07-13T00:29:42;97860.25;;;21.98;74.15
65756;BME280;69208;47.502;18.940;2023-07-13T00:30:45;97858.31;;;21.95;74.33
65756;BME280;69208;47.502;18.940;2023-07-13T00:31:49;97848.44;;;21.99;73.96
65756;BME280;69208;47.502;18.940;2023-07-13T00:32:52;97840.44;;;21.99;73.87
65756;BME280;69208;47.502;18.940;2023-07-13T00:34:14;97830.19;;;22.12;71.82
65756;BME280;69208;47.502;18.940;2023-07-13T00:35:17;97835.16;;;22.14;71.25
65756;BME280;69208;47.502;18.940;2023-07-13T00:36:20;97831.31;;;22.11;71.22
65756;BME280;69208;47.502;18.940;2023-07-13T00:37:23;97828.66;;;22.08;70.95
65756;BME280;69208;47.502;18.940;2023-07-13T00:38:26;97832.84;;;22.12;70.54
65756;BME280;69208;47.502;18.940;2023-07-13T00:39:29;97827.91;;;22.07;70.00
65756;BME280;69208;47.502;18.940;2023-07-13T00:40:32;97831.72;;;22.13;67.33
65756;BME280;69208;47.502;18.940;2023-07-13T00:41:34;97832.09;;;22.15;66.82
65756;BME280;69208;47.502;18.940;2023-07-13T00:42:40;97830.59;;;22.18;65.65
65756;BME280;69208;47.502;18.940;2023-07-13T00:43:43;97829.47;;;22.19;66.36
65756;BME280;69208;47.502;18.940;2023-07-13T00:45:02;97828.34;;;22.20;66.52
65756;BME280;69208;47.502;18.940;2023-07-13T00:46:13;97824.53;;;22.21;66.01
65756;BME280;69208;47.502;18.940;2023-07-13T00:47:16;97823.41;;;22.22;66.55
65756;BME280;69208;47.502;18.940;2023-07-13T00:48:29;97823.41;;;22.29;65.47
65756;BME280;69208;47.502;18.940;2023-07-13T00:49:35;97820.34;;;22.27;64.68
65756;BME280;69208;47.502;18.940;2023-07-13T00:50:39;97825.31;;;22.32;65.34
65756;BME280;69208;47.502;18.940;2023-07-13T00:51:47;97813.50;;;22.30;65.26
65756;BME280;69208;47.502;18.940;2023-07-13T00:52:54;97810.81;;;22.30;63.44
65756;BME280;69208;47.502;18.940;2023-07-13T00:54:00;97815.78;;;22.35;62.14
65756;BME280;69208;47.502;18.940;2023-07-13T00:55:07;97808.56;;;22.35;62.72
65756;BME280;69208;47.502;18.940;2023-07-13T00:56:12;97802.09;;;22.36;62.03
65756;BME280;69208;47.502;18.940;2023-07-13T00:57:17;97803.97;;;22.36;61.53
65756;BME280;69208;47.502;18.940;2023-07-13T00:58:23;97798.66;;;22.39;61.91
65756;BME280;69208;47.502;18.940;2023-07-13T00:59:27;97798.28;;;22.41;62.34
65756;BME280;69208;47.502;18.940;2023-07-13T01:00:30;97811.25;;;22.42;63.34
65756;BME280;69208;47.502;18.940;2023-07-13T01:01:33;97808.19;;;22.40;62.05
65756;BME280;69208;47.502;18.940;2023-07-13T01:02:38;97803.59;;;22.41;63.05
65756;BME280;69208;47.502;18.940;2023-07-13T01:03:41;97790.28;;;22.48;63.67
65756;BME280;69208;47.502;18.940;2023-07-13T01:04:44;97791.03;;;22.52;62.91
65756;BME280;69208;47.502;18.940;2023-07-13T01:05:49;97791.03;;;22.48;63.95
65756;BME280;69208;47.502;18.940;2023-07-13T01:06:53;97791.81;;;22.49;64.63
65756;BME280;69208;47.502;18.940;2023-07-13T01:07:56;97802.84;;;22.44;63.87
65756;BME280;69208;47.502;18.940;2023-07-13T01:08:59;97809.34;;;22.39;63.82
65756;BME280;69208;47.502;18.940;2023-07-13T01:10:03;97810.84;;;22.37;64.56
65756;BME280;69208;47.502;18.940;2023-07-13T01:11:07;97812.00;;;22.43;64.95
65756;BME280;69208;47.502;18.940;2023-07-13T01:12:13;97815.44;;;22.43;64.65
65756;BME280;69208;47.502;18.940;2023-07-13T01:13:16;97811.25;;;22.46;63.67
65756;BME280;69208;47.502;18.940;2023-07-13T01:14:19;97812.75;;;22.47;63.75
65756;BME280;69208;47.502;18.940;2023-07-13T01:16:42;97815.78;;;22.42;64.98
65756;BME280;69208;47.502;18.940;2023-07-13T01:17:45;97820.78;;;22.36;64.71
65756;BME280;69208;47.502;18.940;2023-07-13T01:18:48;97825.31;;;22.36;64.20
65756;BME280;69208;47.502;18.940;2023-07-13T01:19:51;97828.03;;;22.39;64.44
65756;BME280;69208;47.502;18.940;2023-07-13T01:20:58;97830.25;;;22.26;65.57
65756;BME280;69208;47.502;18.940;2023-07-13T01:22:09;97831.41;;;22.18;65.92
65756;BME280;69208;47.502;18.940;2023-07-13T01:23:14;97826.44;;;22.20;65.89
65756;BME280;69208;47.502;18.940;2023-07-13T01:24:17;97818.81;;;22.26;65.79
65756;BME280;69208;47.502;18.940;2023-07-13T01:25:20;97818.47;;;22.28;65.53
65756;BME280;69208;47.502;18.940;2023-07-13T01:26:24;97816.16;;;22.22;65.19
65756;BME280;69208;47.502;18.940;2023-07-13T01:27:26;97810.41;;;22.20;64.41
65756;BME280;69208;47.502;18.940;2023-07-13T01:28:30;97800.06;;;22.08;64.29
65756;BME280;69208;47.502;18.940;2023-07-13T01:29:35;97808.84;;;22.09;64.18
65756;BME280;69208;47.502;18.940;2023-07-13T01:30:46;97803.50;;;22.05;64.11
65756;BME280;69208;47.502;18.940;2023-07-13T01:31:49;97802.31;;;21.99;64.43
65756;BME280;69208;47.502;18.940;2023-07-13T01:32:51;97800.81;;;22.01;64.54
65756;BME280;69208;47.502;18.940;2023-07-13T01:33:54;97803.84;;;22.03;65.96
65756;BME280;69208;47.502;18.940;2023-07-13T01:35:00;97800.47;;;22.07;66.32
65756;BME280;69208;47.502;18.940;2023-07-13T01:36:03;97795.12;;;22.07;66.46
65756;BME280;69208;47.502;18.940;2023-07-13T01:37:06;97801.19;;;22.03;65.94
65756;BME280;69208;47.502;18.940;2023-07-13T01:38:10;97791.25;;;21.90;67.11
65756;BME280;69208;47.502;18.940;2023-07-13T01:39:14;97788.97;;;21.92;67.28
65756;BME280;69208;47.502;18.940;2023-07-13T01:40:18;97779.06;;;21.92;67.14
65756;BME280;69208;47.502;18.940;2023-07-13T01:41:21;97785.16;;;21.93;66.25
65756;BME280;69208;47.502;18.940;2023-07-13T01:42:24;97791.66;;;21.92;66.67
65756;BME280;69208;47.502;18.940;2023-07-13T01:43:27;97788.19;;;21.91;66.91
65756;BME280;69208;47.502;18.940;2023-07-13T01:44:30;97785.91;;;21.86;66.89
65756;BME280;69208;47.502;18.940;2023-07-13T01:45:33;97784.00;;;21.83;66.30
65756;BME280;69208;47.502;18.940;2023-07-13T01:46:36;97782.44;;;21.75;65.40
65756;BME280;69208;47.502;18.940;2023-07-13T01:47:39;97774.44;;;21.75;65.77
65756;BME280;69208;47.502;18.940;2023-07-13T01:48:42;97777.84;;;21.72;65.90
65756;BME280;69208;47.502;18.940;2023-07-13T01:49:45;97775.56;;;21.74;65.18
65756;BME280;69208;47.502;18.940;2023-07-13T01:50:49;97776.31;;;21.71;65.09
65756;BME280;69208;47.502;18.940;2023-07-13T01:51:52;97781.25;;;21.69;65.34
65756;BME280;69208;47.502;18.940;2023-07-13T01:52:55;97768.69;;;21.66;65.43
65756;BME280;69208;47.502;18.940;2023-07-13T01:53:58;97779.38;;;21.73;65.62
65756;BME280;69208;47.502;18.940;2023-07-13T01:55:01;97783.13;;;21.65;63.61
65756;BME280;69208;47.502;18.940;2023-07-13T01:56:05;97783.50;;;21.60;62.83
65756;BME280;69208;47.502;18.940;2023-07-13T01:57:08;97781.59;;;21.56;62.86
65756;BME280;69208;47.502;18.940;2023-07-13T01:58:10;97777.78;;;21.54;63.46
65756;BME280;69208;47.502;18.940;2023-07-13T01:59:13;97767.13;;;21.57;63.97
65756;BME280;69208;47.502;18.940;2023-07-13T02:00:18;97768.66;;;21.62;64.97
65756;BME280;69208;47.502;18.940;2023-07-13T02:01:21;97771.69;;;21.61;65.37
65756;BME280;69208;47.502;18.940;2023-07-13T02:02:24;97771.31;;;21.62;64.64
65756;BME280;69208;47.502;18.940;2023-07-13T02:03:27;97768.28;;;21.60;64.17
65756;BME280;69208;47.502;18.940;2023-07-13T02:04:29;97765.63;;;21.60;62.97
65756;BME280;69208;47.502;18.940;2023-07-13T02:05:32;97760.22;;;21.53;62.80
65756;BME280;69208;47.502;18.940;2023-07-13T02:06:35;97754.94;;;21.56;62.53
65756;BME280;69208;47.502;18.940;2023-07-13T02:07:38;97757.19;;;21.51;61.88
65756;BME280;69208;47.502;18.940;2023-07-13T02:08:42;97763.66;;;21.50;61.61
65756;BME280;69208;47.502;18.940;2023-07-13T02:09:45;97764.03;;;21.48;62.35
65756;BME280;69208;47.502;18.940;2023-07-13T02:10:48;97761.78;;;21.50;62.38
65756;BME280;69208;47.502;18.940;2023-07-13T02:11:51;97765.13;;;21.44;63.06
65756;BME280;69208;47.502;18.940;2023-07-13T02:12:54;97761.72;;;21.47;63.45
65756;BME280;69208;47.502;18.940;2023-07-13T02:13:57;97770.53;;;21.51;63.34
65756;BME280;69208;47.502;18.940;2023-07-13T02:15:00;97762.53;;;21.54;62.71
65756;BME280;69208;47.502;18.940;2023-07-13T02:16:03;97777.00;;;21.53;61.34
65756;BME280;69208;47.502;18.940;2023-07-13T02:17:06;97767.87;;;21.58;62.13
65756;BME280;69208;47.502;18.940;2023-07-13T02:18:09;97767.13;;;21.57;63.01
65756;BME280;69208;47.502;18.940;2023-07-13T02:19:12;97767.84;;;21.51;64.08
65756;BME280;69208;47.502;18.940;2023-07-13T02:20:15;97759.81;;;21.47;64.50
65756;BME280;69208;47.502;18.940;2023-07-13T02:21:18;97759.81;;;21.44;63.57
65756;BME280;69208;47.502;18.940;2023-07-13T02:22:21;97764.78;;;21.45;63.01
65756;BME280;69208;47.502;18.940;2023-07-13T02:23:24;97764.44;;;21.50;62.79
65756;BME280;69208;47.502;18.940;2023-07-13T02:24:28;97771.62;;;21.50;62.26
65756;BME280;69208;47.502;18.940;2023-07-13T02:25:31;97765.16;;;21.47;62.81
65756;BME280;69208;47.502;18.940;2023-07-13T02:26:34;97769.72;;;21.47;64.10
65756;BME280;69208;47.502;18.940;2023-07-13T02:27:37;97760.22;;;21.49;64.30
65756;BME280;69208;47.502;18.940;2023-07-13T02:28:40;97764.41;;;21.47;64.51
65756;BME280;69208;47.502;18.940;2023-07-13T02:29:43;97762.47;;;21.44;64.39
65756;BME280;69208;47.502;18.940;2023-07-13T02:30:46;97767.44;;;21.42;64.57
65756;BME280;69208;47.502;18.940;2023-07-13T02:31:49;97764.78;;;21.45;63.98
65756;BME280;69208;47.502;18.940;2023-07-13T02:32:52;97779.16;;;21.33;64.14
65756;BME280;69208;47.502;18.940;2023-07-13T02:33:55;97779.47;;;21.25;64.37
65756;BME280;69208;47.502;18.940;2023-07-13T02:34:58;97784.78;;;21.21;63.76
65756;BME280;69208;47.502;18.940;2023-07-13T02:36:01;97788.63;;;21.24;62.90
65756;BME280;69208;47.502;18.940;2023-07-13T02:37:04;97789.38;;;21.24;62.91
65756;BME280;69208;47.502;18.940;2023-07-13T02:38:07;97788.19;;;21.18;63.31
65756;BME280;69208;47.502;18.940;2023-07-13T02:39:11;97788.97;;;21.19;64.14
65756;BME280;69208;47.502;18.940;2023-07-13T02:40:15;97778.66;;;21.17;64.58
65756;BME280;69208;47.502;18.940;2023-07-13T02:41:18;97780.53;;;21.09;65.20
65756;BME280;69208;47.502;18.940;2023-07-13T02:42:20;97766.06;;;21.10;65.57
65756;BME280;69208;47.502;18.940;2023-07-13T02:43:23;97769.19;;;21.23;65.33
65756;BME280;69208;47.502;18.940;2023-07-13T02:44:26;97768.41;;;21.23;63.33
65756;BME280;69208;47.502;18.940;2023-07-13T02:45:29;97774.47;;;21.16;63.16
65756;BME280;69208;47.502;18.940;2023-07-13T02:46:34;97780.56;;;21.13;63.30
65756;BME280;69208;47.502;18.940;2023-07-13T02:47:39;97794.88;;;20.94;65.15
65756;BME280;69208;47.502;18.940;2023-07-13T02:48:43;97802.50;;;20.96;65.32
65756;BME280;69208;47.502;18.940;2023-07-13T02:49:46;97805.13;;;20.92;65.59
65756;BME280;69208;47.502;18.940;2023-07-13T02:50:49;97804.38;;;20.92;65.60
65756;BME280;69208;47.502;18.940;2023-07-13T02:51:52;97801.31;;;20.93;65.42
65756;BME280;69208;47.502;18.940;2023-07-13T02:52:55;97798.69;;;20.97;65.83
65756;BME280;69208;47.502;18.940;2023-07-13T02:53:58;97789.91;;;20.93;65.78
65756;BME280;69208;47.502;18.940;2023-07-13T02:55:01;97800.91;;;20.87;66.09
65756;BME280;69208;47.502;18.940;2023-07-13T02:56:05;97792.47;;;20.82;66.42
65756;BME280;69208;47.502;18.940;2023-07-13T02:57:08;97793.94;;;20.76;67.11
65756;BME280;69208;47.502;18.940;2023-07-13T02:58:10;97795.56;;;20.84;67.78
65756;BME280;69208;47.502;18.940;2023-07-13T02:59:13;97798.91;;;20.74;68.33
65756;BME280;69208;47.502;18.940;2023-07-13T03:00:16;97797.34;;;20.73;67.54
65756;BME280;69208;47.502;18.940;2023-07-13T03:01:20;97804.59;;;20.76;66.68
65756;BME280;69208;47.502;18.940;2023-07-13T03:02:24;97808.25;;;20.57;67.94
65756;BME280;69208;47.502;18.940;2023-07-13T03:03:27;97813.81;;;20.44;67.03
65756;BME280;69208;47.502;18.940;2023-07-13T03:04:30;97815.59;;;20.33;68.86
65756;BME280;69208;47.502;18.940;2023-07-13T03:05:33;97822.69;;;20.22;69.36
65756;BME280;69208;47.502;18.940;2023-07-13T03:06:36;97823.91;;;20.32;68.89
65756;BME280;69208;47.502;18.940;2023-07-13T03:07:39;97820.94;;;20.37;68.96
65756;BME280;69208;47.502;18.940;2023-07-13T03:08:43;97830.78;;;20.33;69.09
65756;BME280;69208;47.502;18.940;2023-07-13T03:09:46;97839.22;;;20.38;69.40
65756;BME280;69208;47.502;18.940;2023-07-13T03:11:02;97838.06;;;20.39;69.97
65756;BME280;69208;47.502;18.940;2023-07-13T03:12:06;97839.47;;;20.26;71.07
65756;BME280;69208;47.502;18.940;2023-07-13T03:13:09;97842.22;;;20.37;71.02
65756;BME280;69208;47.502;18.940;2023-07-13T03:14:12;97838.84;;;20.40;71.10
65756;BME280;69208;47.502;18.940;2023-07-13T03:15:15;97835.72;;;20.34;71.58
65756;BME280;69208;47.502;18.940;2023-07-13T03:16:18;97838.88;;;20.43;71.64
65756;BME280;69208;47.502;18.940;2023-07-13T03:17:21;97836.25;;;20.47;71.23
65756;BME280;69208;47.502;18.940;2023-07-13T03:18:26;97838.88;;;20.43;70.94
65756;BME280;69208;47.502;18.940;2023-07-13T03:19:29;97836.25;;;20.47;70.56
65756;BME280;69208;47.502;18.940;2023-07-13T03:20:34;97828.66;;;20.49;70.81
65756;BME280;69208;47.502;18.940;2023-07-13T03:21:36;97827.97;;;20.52;71.45
65756;BME280;69208;47.502;18.940;2023-07-13T03:22:39;97821.84;;;20.52;72.02
65756;BME280;69208;47.502;18.940;2023-07-13T03:23:42;97814.25;;;20.50;73.06
65756;BME280;69208;47.502;18.940;2023-07-13T03:24:46;97821.16;;;20.55;73.00
65756;BME280;69208;47.502;18.940;2023-07-13T03:25:49;97821.19;;;20.58;73.27
65756;BME280;69208;47.502;18.940;2023-07-13T03:26:52;97826.94;;;20.64;73.26
65756;BME280;69208;47.502;18.940;2023-07-13T03:27:55;97831.47;;;20.60;73.41
65756;BME280;69208;47.502;18.940;2023-07-13T03:28:58;97830.41;;;20.68;73.38
65756;BME280;69208;47.502;18.940;2023-07-13T03:30:01;97824.72;;;20.73;73.69
65756;BME280;69208;47.502;18.940;2023-07-13T03:31:11;97815.63;;;20.74;73.75
65756;BME280;69208;47.502;18.940;2023-07-13T03:32:15;97817.94;;;20.79;74.15
65756;BME280;69208;47.502;18.940;2023-07-13T03:33:17;97808.53;;;20.89;74.21
65756;BME280;69208;47.502;18.940;2023-07-13T03:34:20;97808.13;;;20.87;74.25
65756;BME280;69208;47.502;18.940;2023-07-13T03:35:23;97808.53;;;20.89;74.68
65756;BME280;69208;47.502;18.940;2023-07-13T03:36:28;97805.47;;;20.90;75.02
65756;BME280;69208;47.502;18.940;2023-07-13T03:37:31;97810.06;;;20.94;74.73
65756;BME280;69208;47.502;18.940;2023-07-13T03:38:34;97816.88;;;20.87;75.79
65756;BME280;69208;47.502;18.940;2023-07-13T03:39:36;97819.25;;;21.00;75.75
65756;BME280;69208;47.502;18.940;2023-07-13T03:40:39;97827.97;;;20.97;75.56
65756;BME280;69208;47.502;18.940;2023-07-13T03:41:42;97840.19;;;21.01;75.62
65756;BME280;69208;47.502;18.940;2023-07-13T03:42:45;97841.06;;;21.12;76.39
65756;BME280;69208;47.502;18.940;2023-07-13T03:43:49;97827.72;;;21.12;76.31
65756;BME280;69208;47.502;18.940;2023-07-13T03:44:51;97839.16;;;21.17;76.65
65756;BME280;69208;47.502;18.940;2023-07-13T03:45:55;97832.34;;;21.23;76.71
65756;BME280;69208;47.502;18.940;2023-07-13T03:46:58;97838.09;;;21.25;77.24
65756;BME280;69208;47.502;18.940;2023-07-13T03:48:00;97840.38;;;21.26;76.92
65756;BME280;69208;47.502;18.940;2023-07-13T03:49:05;97844.59;;;21.27;76.33
65756;BME280;69208;47.502;18.940;2023-07-13T03:50:08;97831.25;;;21.27;76.54
65756;BME280;69208;47.502;18.940;2023-07-13T03:51:13;97833.19;;;21.30;77.45
65756;BME280;69208;47.502;18.940;2023-07-13T03:52:16;97831.28;;;21.34;77.81
65756;BME280;69208;47.502;18.940;2023-07-13T03:53:19;97833.62;;;21.36;78.25
65756;BME280;69208;47.502;18.940;2023-07-13T03:54:22;97835.50;;;21.35;78.02
65756;BME280;69208;47.502;18.940;2023-07-13T03:55:25;97825.25;;;21.38;77.68
65756;BME280;69208;47.502;18.940;2023-07-13T03:56:29;97829.09;;;21.40;77.99
65756;BME280;69208;47.502;18.940;2023-07-13T03:57:33;97829.50;;;21.46;78.56
65756;BME280;69208;47.502;18.940;2023-07-13T03:58:42;97823.44;;;21.49;78.55
65756;BME280;69208;47.502;18.940;2023-07-13T03:59:45;97833.75;;;21.54;78.20
65756;BME280;69208;47.502;18.940;2023-07-13T04:00:48;97830.34;;;21.57;78.10
65756;BME280;69208;47.502;18.940;2023-07-13T04:01:50;97832.25;;;21.56;78.04
65756;BME280;69208;47.502;18.940;2023-07-13T04:02:53;97832.25;;;21.60;78.36
65756;BME280;69208;47.502;18.940;2023-07-13T04:03:56;97834.13;;;21.56;78.62
65756;BME280;69208;47.502;18.940;2023-07-13T04:05:01;97840.59;;;21.55;79.16
65756;BME280;69208;47.502;18.940;2023-07-13T04:06:06;97849.34;;;21.59;79.16
65756;BME280;69208;47.502;18.940;2023-07-13T04:07:10;97853.94;;;21.58;79.38
65756;BME280;69208;47.502;18.940;2023-07-13T04:08:13;97866.91;;;21.60;79.25
65756;BME280;69208;47.502;18.940;2023-07-13T04:09:15;97871.09;;;21.61;79.30
65756;BME280;69208;47.502;18.940;2023-07-13T04:10:18;97879.09;;;21.65;79.35
65756;BME280;69208;47.502;18.940;2023-07-13T04:11:23;97882.91;;;21.64;79.08
65756;BME280;69208;47.502;18.940;2023-07-13T04:12:26;97900.78;;;21.60;78.94
65756;BME280;69208;47.502;18.940;2023-07-13T04:13:32;97904.25;;;21.64;78.98
65756;BME280;69208;47.502;18.940;2023-07-13T04:14:37;97910.97;;;21.47;80.57
65756;BME280;69208;47.502;18.940;2023-07-13T04:15:40;97909.31;;;21.31;80.15
65756;BME280;69208;47.502;18.940;2023-07-13T04:16:43;97929.56;;;21.40;79.42
65756;BME280;69208;47.502;18.940;2023-07-13T04:17:46;97921.56;;;21.36;79.29
65756;BME280;69208;47.502;18.940;2023-07-13T04:18:49;97927.91;;;21.24;80.01
65756;BME280;69208;47.502;18.940;2023-07-13T04:19:52;97921.00;;;21.20;80.48
65756;BME280;69208;47.502;18.940;2023-07-13T04:20:55;97916.06;;;21.18;79.99
65756;BME280;69208;47.502;18.940;2023-07-13T04:21:58;97919.84;;;21.17;78.97
65756;BME280;69208;47.502;18.940;2023-07-13T04:23:01;97921.44;;;21.25;78.18
65756;BME280;69208;47.502;18.940;2023-07-13T04:24:04;97921.75;;;21.17;78.61
65756;BME280;69208;47.502;18.940;2023-07-13T04:25:07;97917.28;;;21.31;78.54
65756;BME280;69208;47.502;18.940;2023-07-13T04:26:10;97918.41;;;21.27;78.99
65756;BME280;69208;47.502;18.940;2023-07-13T04:27:13;97912.59;;;21.14;79.71
65756;BME280;69208;47.502;18.940;2023-07-13T04:28:16;97922.78;;;21.05;79.69
65756;BME280;69208;47.502;18.940;2023-07-13T04:29:20;97924.78;;;21.15;79.40
65756;BME280;69208;47.502;18.940;2023-07-13T04:30:23;97930.19;;;21.26;79.14
65756;BME280;69208;47.502;18.940;2023-07-13T04:31:26;97924.16;;;21.32;78.86
65756;BME280;69208;47.502;18.940;2023-07-13T04:32:29;97929.72;;;21.13;79.61
65756;BME280;69208;47.502;18.940;2023-07-13T04:33:31;97925.84;;;21.07;80.30
65756;BME280;69208;47.502;18.940;2023-07-13T04:34:34;97933.03;;;21.03;80.54
65756;BME280;69208;47.502;18.940;2023-07-13T04:35:37;97939.66;;;21.20;81.05
65756;BME280;69208;47.502;18.940;2023-07-13T04:36:40;97933.59;;;21.23;81.69
65756;BME280;69208;47.502;18.940;2023-07-13T04:37:42;97937.41;;;21.25;81.91
65756;BME280;69208;47.502;18.940;2023-07-13T04:38:45;97945.81;;;21.27;81.59
65756;BME280;69208;47.502;18.940;2023-07-13T04:39:48;97948.09;;;21.29;81.79
65756;BME280;69208;47.502;18.940;2023-07-13T04:40:51;97950.75;;;21.25;82.24
65756;BME280;69208;47.502;18.940;2023-07-13T04:41:54;97953.06;;;21.27;81.59
65756;BME280;69208;47.502;18.940;2023-07-13T04:42:58;97956.03;;;21.22;81.99
65756;BME280;69208;47.502;18.940;2023-07-13T04:44:00;97969.56;;;21.06;82.35
65756;BME280;69208;47.502;18.940;2023-07-13T04:45:08;97969.66;;;21.13;82.07
65756;BME280;69208;47.502;18.940;2023-07-13T04:46:13;97973.75;;;21.03;83.01
65756;BME280;69208;47.502;18.940;2023-07-13T04:47:17;97974.81;;;20.95;83.32
65756;BME280;69208;47.502;18.940;2023-07-13T04:48:21;97976.59;;;20.84;83.74
65756;BME280;69208;47.502;18.940;2023-07-13T04:49:24;97986.97;;;20.93;84.04
65756;BME280;69208;47.502;18.940;2023-07-13T04:50:27;97979.38;;;20.95;84.14
65756;BME280;69208;47.502;18.940;2023-07-13T04:51:29;97990.03;;;20.95;83.90
65756;BME280;69208;47.502;18.940;2023-07-13T04:52:32;97994.59;;;20.94;84.49
65756;BME280;69208;47.502;18.940;2023-07-13T04:53:35;98000.28;;;20.93;85.56
65756;BME280;69208;47.502;18.940;2023-07-13T04:54:38;98004.37;;;20.86;86.94
65756;BME280;69208;47.502;18.940;2023-07-13T04:55:41;98007.06;;;20.86;87.17
65756;BME280;69208;47.502;18.940;2023-07-13T04:56:44;98021.50;;;20.85;87.46
65756;BME280;69208;47.502;18.940;2023-07-13T04:57:47;98024.09;;;20.82;89.29
65756;BME280;69208;47.502;18.940;2023-07-13T04:58:50;98041.25;;;20.84;89.48
65756;BME280;69208;47.502;18.940;2023-07-13T04:59:52;98058.19;;;20.69;91.49
65756;BME280;69208;47.502;18.940;2023-07-13T05:01:04;98072.72;;;20.49;93.76
65756;BME280;69208;47.502;18.940;2023-07-13T05:02:07;98085.84;;;20.38;93.82
65756;BME280;69208;47.502;18.940;2023-07-13T05:03:10;98097.88;;;20.28;95.26
65756;BME280;69208;47.502;18.940;2023-07-13T05:04:13;98114.41;;;20.14;96.71
65756;BME280;69208;47.502;18.940;2023-07-13T05:05:16;98117.63;;;20.27;96.42
65756;BME280;69208;47.502;18.940;2023-07-13T05:06:18;98129.31;;;20.22;97.08
65756;BME280;69208;47.502;18.940;2023-07-13T05:07:21;98128.47;;;20.15;97.82
65756;BME280;69208;47.502;18.940;2023-07-13T05:08:24;98136.97;;;20.24;98.45
65756;BME280;69208;47.502;18.940;2023-07-13T05:09:27;98150.56;;;20.19;99.55
65756;BME280;69208;47.502;18.940;2023-07-13T05:10:30;98151.22;;;20.12;99.79
65756;BME280;69208;47.502;18.940;2023-07-13T05:11:33;98162.50;;;20.06;100.00
65756;BME280;69208;47.502;18.940;2023-07-13T05:12:35;98170.06;;;20.04;100.00
65756;BME280;69208;47.502;18.940;2023-07-13T05:13:38;98170.94;;;19.88;100.00
65756;BME280;69208;47.502;18.940;2023-07-13T05:14:41;98177.38;;;19.87;100.00
65756;BME280;69208;47.502;18.940;2023-07-13T05:15:45;98177.72;;;19.86;100.00
65756;BME280;69208;47.502;18.940;2023-07-13T05:16:48;98178.38;;;19.79;100.00
65756;BME280;69208;47.502;18.940;2023-07-13T05:17:51;98171.31;;;19.67;100.00
65756;BME280;69208;47.502;18.940;2023-07-13T05:18:53;98172.34;;;19.63;100.00
65756;BME280;69208;47.502;18.940;2023-07-13T05:19:56;98175.25;;;19.58;100.00
65756;BME280;69208;47.502;18.940;2023-07-13T05:21:05;98169.06;;;19.50;100.00
65756;BME280;69208;47.502;18.940;2023-07-13T05:22:08;98160.81;;;19.36;100.00
65756;BME280;69208;47.502;18.940;2023-07-13T05:23:11;98158.59;;;19.38;100.00
65756;BME280;69208;47.502;18.940;2023-07-13T05:24:13;98160.38;;;19.33;100.00
65756;BME280;69208;47.502;18.940;2023-07-13T05:25:27;98156.84;;;19.26;100.00
65756;BME280;69208;47.502;18.940;2023-07-13T05:26:29;98156.66;;;19.19;100.00
65756;BME280;69208;47.502;18.940;2023-07-13T05:27:33;98149.47;;;19.19;100.00
65756;BME280;69208;47.502;18.940;2023-07-13T05:28:36;98163.38;;;19.13;100.00
65756;BME280;69208;47.502;18.940;2023-07-13T05:29:40;98159.03;;;19.04;100.00
65756;BME280;69208;47.502;18.940;2023-07-13T05:30:47;98168.88;;;19.04;100.00
65756;BME280;69208;47.502;18.940;2023-07-13T05:31:50;98167.34;;;19.03;100.00
65756;BME280;69208;47.502;18.940;2023-07-13T05:32:53;98180.19;;;19.01;100.00
65756;BME280;69208;47.502;18.940;2023-07-13T05:33:56;98168.25;;;18.91;100.00
65756;BME280;69208;47.502;18.940;2023-07-13T05:34:58;98177.91;;;18.83;100.00